sensor_id;sensor_type;location;lat;lon;timestamp;P1;P2;P0
74333;PMS5003;62753;40.394;-80.022;2023-03-01T00:00:23;14;12;
74333;PMS5003;62753;40.394;-80.022;2023-03-01T00:02:49;12;11;
74333;PMS5003;62753;40.394;-80.022;2023-03-01T00:05:14;11;11;
74333;PMS5003;62753;40.394;-80.022;2023-03-01T00:07:39;10;10;
74333;PMS5003;62753;40.394;-80.022;2023-03-01T00:10:05;13;13;
74333;PMS5003;62753;40.394;-80.022;2023-03-01T00:12:31;11;10;
74333;PMS5003;62753;40.394;-80.022;2023-03-01T00:14:56;12;12;
74333;PMS5003;62753;40.394;-80.022;2023-03-01T00:17:21;13;12;
74333;PMS5003;62753;40.394;-80.022;2023-03-01T00:19:47;11;11;
74333;PMS5003;62753;40.394;-80.022;2023-03-01T00:22:12;14;12;
74333;PMS5003;62753;40.394;-80.022;2023-03-01T00:24:37;15;13;
74333;PMS5003;62753;40.394;-80.022;2023-03-01T00:27:03;15;14;
74333;PMS5003;62753;40.394;-80.022;2023-03-01T00:29:28;17;15;
74333;PMS5003;62753;40.394;-80.022;2023-03-01T00:31:54;14;12;
74333;PMS5003;62753;40.394;-80.022;2023-03-01T00:34:19;10;10;
74333;PMS5003;62753;40.394;-80.022;2023-03-01T00:36:45;16;14;
74333;PMS5003;62753;40.394;-80.022;2023-03-01T00:39:12;13;12;
74333;PMS5003;62753;40.394;-80.022;2023-03-01T00:41:36;12;12;
74333;PMS5003;62753;40.394;-80.022;2023-03-01T00:44:02;15;14;
74333;PMS5003;62753;40.394;-80.022;2023-03-01T00:46:27;13;11;
74333;PMS5003;62753;40.394;-80.022;2023-03-01T00:48:53;10;10;
74333;PMS5003;62753;40.394;-80.022;2023-03-01T00:51:19;10;10;
74333;PMS5003;62753;40.394;-80.022;2023-03-01T00:53:44;10;9;
74333;PMS5003;62753;40.394;-80.022;2023-03-01T00:56:10;12;12;
74333;PMS5003;62753;40.394;-80.022;2023-03-01T00:58:35;14;12;
74333;PMS5003;62753;40.394;-80.022;2023-03-01T01:01:00;12;12;
74333;PMS5003;62753;40.394;-80.022;2023-03-01T01:03:26;13;13;
74333;PMS5003;62753;40.394;-80.022;2023-03-01T01:05:52;14;14;
74333;PMS5003;62753;40.394;-80.022;2023-03-01T01:08:17;15;14;
74333;PMS5003;62753;40.394;-80.022;2023-03-01T01:10:43;13;12;
74333;PMS5003;62753;40.394;-80.022;2023-03-01T01:13:08;14;13;
74333;PMS5003;62753;40.394;-80.022;2023-03-01T01:15:33;11;11;
74333;PMS5003;62753;40.394;-80.022;2023-03-01T01:17:59;12;12;
74333;PMS5003;62753;40.394;-80.022;2023-03-01T01:20:24;15;15;
74333;PMS5003;62753;40.394;-80.022;2023-03-01T01:22:50;17;15;
74333;PMS5003;62753;40.394;-80.022;2023-03-01T01:25:15;13;12;
74333;PMS5003;62753;40.394;-80.022;2023-03-01T01:27:40;20;16;
74333;PMS5003;62753;40.394;-80.022;2023-03-01T01:30:06;13;13;
74333;PMS5003;62753;40.394;-80.022;2023-03-01T01:32:31;16;14;
74333;PMS5003;62753;40.394;-80.022;2023-03-01T01:34:56;16;12;
74333;PMS5003;62753;40.394;-80.022;2023-03-01T01:37:21;16;12;
74333;PMS5003;62753;40.394;-80.022;2023-03-01T01:39:47;12;12;
74333;PMS5003;62753;40.394;-80.022;2023-03-01T01:42:13;13;13;
74333;PMS5003;62753;40.394;-80.022;2023-03-01T01:44:39;15;13;
74333;PMS5003;62753;40.394;-80.022;2023-03-01T01:47:03;16;16;
74333;PMS5003;62753;40.394;-80.022;2023-03-01T01:49:30;20;18;
74333;PMS5003;62753;40.394;-80.022;2023-03-01T01:51:56;16;14;
74333;PMS5003;62753;40.394;-80.022;2023-03-01T01:54:20;16;16;
74333;PMS5003;62753;40.394;-80.022;2023-03-01T01:56:46;17;17;
74333;PMS5003;62753;40.394;-80.022;2023-03-01T01:59:11;15;13;
74333;PMS5003;62753;40.394;-80.022;2023-03-01T02:01:36;19;18;
74333;PMS5003;62753;40.394;-80.022;2023-03-01T02:04:02;22;19;
74333;PMS5003;62753;40.394;-80.022;2023-03-01T02:06:28;16;16;
74333;PMS5003;62753;40.394;-80.022;2023-03-01T02:08:52;18;17;
74333;PMS5003;62753;40.394;-80.022;2023-03-01T02:11:17;18;18;
74333;PMS5003;62753;40.394;-80.022;2023-03-01T02:13:43;18;17;
74333;PMS5003;62753;40.394;-80.022;2023-03-01T02:16:10;21;19;
74333;PMS5003;62753;40.394;-80.022;2023-03-01T02:18:34;21;20;
74333;PMS5003;62753;40.394;-80.022;2023-03-01T02:21:04;25;24;
74333;PMS5003;62753;40.394;-80.022;2023-03-01T02:23:26;23;21;
74333;PMS5003;62753;40.394;-80.022;2023-03-01T02:25:52;22;22;
74333;PMS5003;62753;40.394;-80.022;2023-03-01T02:28:22;22;20;
74333;PMS5003;62753;40.394;-80.022;2023-03-01T02:30:43;20;18;
74333;PMS5003;62753;40.394;-80.022;2023-03-01T02:33:08;25;22;
74333;PMS5003;62753;40.394;-80.022;2023-03-01T02:35:33;22;20;
74333;PMS5003;62753;40.394;-80.022;2023-03-01T02:37:59;27;23;
74333;PMS5003;62753;40.394;-80.022;2023-03-01T02:40:24;27;27;
74333;PMS5003;62753;40.394;-80.022;2023-03-01T02:42:51;25;22;
74333;PMS5003;62753;40.394;-80.022;2023-03-01T02:45:16;25;22;
74333;PMS5003;62753;40.394;-80.022;2023-03-01T02:47:41;28;21;
74333;PMS5003;62753;40.394;-80.022;2023-03-01T02:50:11;31;26;
74333;PMS5003;62753;40.394;-80.022;2023-03-01T02:52:36;21;19;
74333;PMS5003;62753;40.394;-80.022;2023-03-01T02:54:58;19;18;
74333;PMS5003;62753;40.394;-80.022;2023-03-01T02:57:22;29;25;
74333;PMS5003;62753;40.394;-80.022;2023-03-01T02:59:48;27;26;
74333;PMS5003;62753;40.394;-80.022;2023-03-01T03:02:18;28;26;
74333;PMS5003;62753;40.394;-80.022;2023-03-01T03:04:39;32;25;
74333;PMS5003;62753;40.394;-80.022;2023-03-01T03:07:04;31;25;
74333;PMS5003;62753;40.394;-80.022;2023-03-01T03:09:30;32;27;
74333;PMS5003;62753;40.394;-80.022;2023-03-01T03:11:56;29;27;
74333;PMS5003;62753;40.394;-80.022;2023-03-01T03:14:21;26;24;
74333;PMS5003;62753;40.394;-80.022;2023-03-01T03:16:47;24;21;
74333;PMS5003;62753;40.394;-80.022;2023-03-01T03:19:11;25;24;
74333;PMS5003;62753;40.394;-80.022;2023-03-01T03:21:37;24;22;
74333;PMS5003;62753;40.394;-80.022;2023-03-01T03:24:03;20;19;
74333;PMS5003;62753;40.394;-80.022;2023-03-01T03:26:28;30;24;
74333;PMS5003;62753;40.394;-80.022;2023-03-01T03:28:54;26;25;
74333;PMS5003;62753;40.394;-80.022;2023-03-01T03:31:20;31;30;
74333;PMS5003;62753;40.394;-80.022;2023-03-01T03:33:45;30;29;
74333;PMS5003;62753;40.394;-80.022;2023-03-01T03:36:14;28;28;
74333;PMS5003;62753;40.394;-80.022;2023-03-01T03:38:36;30;29;
74333;PMS5003;62753;40.394;-80.022;2023-03-01T03:41:03;29;26;
74333;PMS5003;62753;40.394;-80.022;2023-03-01T03:43:27;29;24;
74333;PMS5003;62753;40.394;-80.022;2023-03-01T03:45:52;37;31;
74333;PMS5003;62753;40.394;-80.022;2023-03-01T03:48:18;40;31;
74333;PMS5003;62753;40.394;-80.022;2023-03-01T03:50:47;35;26;
74333;PMS5003;62753;40.394;-80.022;2023-03-01T03:53:09;30;27;
74333;PMS5003;62753;40.394;-80.022;2023-03-01T03:55:34;28;27;
74333;PMS5003;62753;40.394;-80.022;2023-03-01T03:58:00;34;30;
74333;PMS5003;62753;40.394;-80.022;2023-03-01T04:00:25;34;26;
74333;PMS5003;62753;40.394;-80.022;2023-03-01T04:02:50;29;28;
74333;PMS5003;62753;40.394;-80.022;2023-03-01T04:05:17;35;29;
74333;PMS5003;62753;40.394;-80.022;2023-03-01T04:07:42;40;32;
74333;PMS5003;62753;40.394;-80.022;2023-03-01T04:10:08;29;29;
74333;PMS5003;62753;40.394;-80.022;2023-03-01T04:12:33;30;28;
74333;PMS5003;62753;40.394;-80.022;2023-03-01T04:14:59;40;32;
74333;PMS5003;62753;40.394;-80.022;2023-03-01T04:17:23;29;25;
74333;PMS5003;62753;40.394;-80.022;2023-03-01T04:19:49;28;26;
74333;PMS5003;62753;40.394;-80.022;2023-03-01T04:22:14;31;23;
74333;PMS5003;62753;40.394;-80.022;2023-03-01T04:24:39;31;28;
74333;PMS5003;62753;40.394;-80.022;2023-03-01T04:27:05;26;22;
74333;PMS5003;62753;40.394;-80.022;2023-03-01T04:29:30;29;25;
74333;PMS5003;62753;40.394;-80.022;2023-03-01T04:31:56;26;22;
74333;PMS5003;62753;40.394;-80.022;2023-03-01T04:34:21;28;24;
74333;PMS5003;62753;40.394;-80.022;2023-03-01T04:36:46;27;23;
74333;PMS5003;62753;40.394;-80.022;2023-03-01T04:39:12;22;19;
74333;PMS5003;62753;40.394;-80.022;2023-03-01T04:41:38;35;25;
74333;PMS5003;62753;40.394;-80.022;2023-03-01T04:44:03;27;26;
74333;PMS5003;62753;40.394;-80.022;2023-03-01T04:46:28;26;23;
74333;PMS5003;62753;40.394;-80.022;2023-03-01T04:48:53;23;21;
74333;PMS5003;62753;40.394;-80.022;2023-03-01T04:51:19;28;24;
74333;PMS5003;62753;40.394;-80.022;2023-03-01T04:53:44;24;20;
74333;PMS5003;62753;40.394;-80.022;2023-03-01T04:56:11;25;23;
74333;PMS5003;62753;40.394;-80.022;2023-03-01T04:58:35;24;23;
74333;PMS5003;62753;40.394;-80.022;2023-03-01T05:01:01;25;23;
74333;PMS5003;62753;40.394;-80.022;2023-03-01T05:03:26;25;23;
74333;PMS5003;62753;40.394;-80.022;2023-03-01T05:05:51;24;23;
74333;PMS5003;62753;40.394;-80.022;2023-03-01T05:08:16;26;24;
74333;PMS5003;62753;40.394;-80.022;2023-03-01T05:10:43;29;25;
74333;PMS5003;62753;40.394;-80.022;2023-03-01T05:13:07;30;25;
74333;PMS5003;62753;40.394;-80.022;2023-03-01T05:15:33;27;26;
74333;PMS5003;62753;40.394;-80.022;2023-03-01T05:17:59;22;19;
74333;PMS5003;62753;40.394;-80.022;2023-03-01T05:20:24;24;22;
74333;PMS5003;62753;40.394;-80.022;2023-03-01T05:22:51;24;22;
74333;PMS5003;62753;40.394;-80.022;2023-03-01T05:25:16;25;22;
74333;PMS5003;62753;40.394;-80.022;2023-03-01T05:27:41;23;22;
74333;PMS5003;62753;40.394;-80.022;2023-03-01T05:30:07;28;24;
74333;PMS5003;62753;40.394;-80.022;2023-03-01T05:32:32;26;23;
74333;PMS5003;62753;40.394;-80.022;2023-03-01T05:34:58;22;19;
74333;PMS5003;62753;40.394;-80.022;2023-03-01T05:37:23;24;22;
74333;PMS5003;62753;40.394;-80.022;2023-03-01T05:39:49;25;24;
74333;PMS5003;62753;40.394;-80.022;2023-03-01T05:42:14;19;19;
74333;PMS5003;62753;40.394;-80.022;2023-03-01T05:44:40;23;20;
74333;PMS5003;62753;40.394;-80.022;2023-03-01T05:47:05;21;19;
74333;PMS5003;62753;40.394;-80.022;2023-03-01T05:49:31;23;18;
74333;PMS5003;62753;40.394;-80.022;2023-03-01T05:51:56;26;22;
74333;PMS5003;62753;40.394;-80.022;2023-03-01T05:54:22;23;21;
74333;PMS5003;62753;40.394;-80.022;2023-03-01T05:56:47;29;23;
74333;PMS5003;62753;40.394;-80.022;2023-03-01T05:59:13;24;21;
74333;PMS5003;62753;40.394;-80.022;2023-03-01T06:01:38;27;24;
74333;PMS5003;62753;40.394;-80.022;2023-03-01T06:04:04;23;21;
74333;PMS5003;62753;40.394;-80.022;2023-03-01T06:06:29;24;23;
74333;PMS5003;62753;40.394;-80.022;2023-03-01T06:08:55;24;22;
74333;PMS5003;62753;40.394;-80.022;2023-03-01T06:11:20;27;22;
74333;PMS5003;62753;40.394;-80.022;2023-03-01T06:13:45;32;27;
74333;PMS5003;62753;40.394;-80.022;2023-03-01T06:16:11;25;25;
74333;PMS5003;62753;40.394;-80.022;2023-03-01T06:18:36;40;34;
74333;PMS5003;62753;40.394;-80.022;2023-03-01T06:21:01;33;26;
74333;PMS5003;62753;40.394;-80.022;2023-03-01T06:23:27;36;26;
74333;PMS5003;62753;40.394;-80.022;2023-03-01T06:25:52;32;26;
74333;PMS5003;62753;40.394;-80.022;2023-03-01T06:28:17;30;27;
74333;PMS5003;62753;40.394;-80.022;2023-03-01T06:30:43;35;29;
74333;PMS5003;62753;40.394;-80.022;2023-03-01T06:33:08;32;29;
74333;PMS5003;62753;40.394;-80.022;2023-03-01T06:35:34;38;30;
74333;PMS5003;62753;40.394;-80.022;2023-03-01T06:38:00;34;24;
74333;PMS5003;62753;40.394;-80.022;2023-03-01T06:40:25;41;29;
74333;PMS5003;62753;40.394;-80.022;2023-03-01T06:42:50;36;29;
74333;PMS5003;62753;40.394;-80.022;2023-03-01T06:45:15;33;27;
74333;PMS5003;62753;40.394;-80.022;2023-03-01T06:47:40;33;27;
74333;PMS5003;62753;40.394;-80.022;2023-03-01T06:50:06;33;30;
74333;PMS5003;62753;40.394;-80.022;2023-03-01T06:52:31;32;25;
74333;PMS5003;62753;40.394;-80.022;2023-03-01T06:54:57;27;25;
74333;PMS5003;62753;40.394;-80.022;2023-03-01T06:57:23;35;31;
74333;PMS5003;62753;40.394;-80.022;2023-03-01T06:59:48;25;22;
74333;PMS5003;62753;40.394;-80.022;2023-03-01T07:02:14;36;30;
74333;PMS5003;62753;40.394;-80.022;2023-03-01T07:04:39;29;26;
74333;PMS5003;62753;40.394;-80.022;2023-03-01T07:07:04;33;29;
74333;PMS5003;62753;40.394;-80.022;2023-03-01T07:09:29;36;31;
74333;PMS5003;62753;40.394;-80.022;2023-03-01T07:11:55;30;27;
74333;PMS5003;62753;40.394;-80.022;2023-03-01T07:14:20;30;26;
74333;PMS5003;62753;40.394;-80.022;2023-03-01T07:16:45;28;25;
74333;PMS5003;62753;40.394;-80.022;2023-03-01T07:19:11;28;25;
74333;PMS5003;62753;40.394;-80.022;2023-03-01T07:21:37;25;24;
74333;PMS5003;62753;40.394;-80.022;2023-03-01T07:24:02;30;24;
74333;PMS5003;62753;40.394;-80.022;2023-03-01T07:26:27;24;22;
74333;PMS5003;62753;40.394;-80.022;2023-03-01T07:28:53;24;22;
74333;PMS5003;62753;40.394;-80.022;2023-03-01T07:31:18;34;28;
74333;PMS5003;62753;40.394;-80.022;2023-03-01T07:33:44;23;22;
74333;PMS5003;62753;40.394;-80.022;2023-03-01T07:36:09;27;26;
74333;PMS5003;62753;40.394;-80.022;2023-03-01T07:38:33;27;23;
74333;PMS5003;62753;40.394;-80.022;2023-03-01T07:41:00;29;24;
74333;PMS5003;62753;40.394;-80.022;2023-03-01T07:43:25;36;24;
74333;PMS5003;62753;40.394;-80.022;2023-03-01T07:45:50;29;23;
74333;PMS5003;62753;40.394;-80.022;2023-03-01T07:48:16;31;26;
74333;PMS5003;62753;40.394;-80.022;2023-03-01T07:50:41;34;25;
74333;PMS5003;62753;40.394;-80.022;2023-03-01T07:53:06;30;28;
74333;PMS5003;62753;40.394;-80.022;2023-03-01T07:55:32;29;27;
74333;PMS5003;62753;40.394;-80.022;2023-03-01T07:57:57;20;20;
74333;PMS5003;62753;40.394;-80.022;2023-03-01T08:00:22;27;22;
74333;PMS5003;62753;40.394;-80.022;2023-03-01T08:02:48;26;25;
74333;PMS5003;62753;40.394;-80.022;2023-03-01T08:05:13;27;22;
74333;PMS5003;62753;40.394;-80.022;2023-03-01T08:07:38;25;23;
74333;PMS5003;62753;40.394;-80.022;2023-03-01T08:10:04;25;24;
74333;PMS5003;62753;40.394;-80.022;2023-03-01T08:12:29;22;20;
74333;PMS5003;62753;40.394;-80.022;2023-03-01T08:14:54;28;24;
74333;PMS5003;62753;40.394;-80.022;2023-03-01T08:17:19;24;21;
74333;PMS5003;62753;40.394;-80.022;2023-03-01T08:19:45;24;24;
74333;PMS5003;62753;40.394;-80.022;2023-03-01T08:22:11;26;24;
74333;PMS5003;62753;40.394;-80.022;2023-03-01T08:24:36;35;29;
74333;PMS5003;62753;40.394;-80.022;2023-03-01T08:27:01;30;26;
74333;PMS5003;62753;40.394;-80.022;2023-03-01T08:29:27;27;22;
74333;PMS5003;62753;40.394;-80.022;2023-03-01T08:31:53;27;23;
74333;PMS5003;62753;40.394;-80.022;2023-03-01T08:34:18;27;25;
74333;PMS5003;62753;40.394;-80.022;2023-03-01T08:36:44;27;21;
74333;PMS5003;62753;40.394;-80.022;2023-03-01T08:39:09;24;23;
74333;PMS5003;62753;40.394;-80.022;2023-03-01T08:41:34;28;23;
74333;PMS5003;62753;40.394;-80.022;2023-03-01T08:44:00;23;22;
74333;PMS5003;62753;40.394;-80.022;2023-03-01T08:46:25;24;22;
74333;PMS5003;62753;40.394;-80.022;2023-03-01T08:48:50;24;23;
74333;PMS5003;62753;40.394;-80.022;2023-03-01T08:51:16;27;24;
74333;PMS5003;62753;40.394;-80.022;2023-03-01T08:53:41;30;26;
74333;PMS5003;62753;40.394;-80.022;2023-03-01T08:56:07;28;23;
74333;PMS5003;62753;40.394;-80.022;2023-03-01T08:58:32;23;22;
74333;PMS5003;62753;40.394;-80.022;2023-03-01T09:00:57;23;20;
74333;PMS5003;62753;40.394;-80.022;2023-03-01T09:03:22;29;23;
74333;PMS5003;62753;40.394;-80.022;2023-03-01T09:05:47;22;20;
74333;PMS5003;62753;40.394;-80.022;2023-03-01T09:08:12;27;24;
74333;PMS5003;62753;40.394;-80.022;2023-03-01T09:10:38;25;21;
74333;PMS5003;62753;40.394;-80.022;2023-03-01T09:13:03;27;22;
74333;PMS5003;62753;40.394;-80.022;2023-03-01T09:15:28;21;20;
74333;PMS5003;62753;40.394;-80.022;2023-03-01T09:17:54;26;22;
74333;PMS5003;62753;40.394;-80.022;2023-03-01T09:20:19;19;18;
74333;PMS5003;62753;40.394;-80.022;2023-03-01T09:22:44;26;21;
74333;PMS5003;62753;40.394;-80.022;2023-03-01T09:25:10;22;20;
74333;PMS5003;62753;40.394;-80.022;2023-03-01T09:27:35;27;25;
74333;PMS5003;62753;40.394;-80.022;2023-03-01T09:30:00;32;25;
74333;PMS5003;62753;40.394;-80.022;2023-03-01T09:32:26;26;22;
74333;PMS5003;62753;40.394;-80.022;2023-03-01T09:34:51;25;20;
74333;PMS5003;62753;40.394;-80.022;2023-03-01T09:37:16;31;26;
74333;PMS5003;62753;40.394;-80.022;2023-03-01T09:39:42;30;27;
74333;PMS5003;62753;40.394;-80.022;2023-03-01T09:42:10;22;20;
74333;PMS5003;62753;40.394;-80.022;2023-03-01T09:44:35;27;21;
74333;PMS5003;62753;40.394;-80.022;2023-03-01T09:46:58;29;24;
74333;PMS5003;62753;40.394;-80.022;2023-03-01T09:49:24;21;20;
74333;PMS5003;62753;40.394;-80.022;2023-03-01T09:51:55;23;22;
74333;PMS5003;62753;40.394;-80.022;2023-03-01T09:54:13;29;26;
74333;PMS5003;62753;40.394;-80.022;2023-03-01T09:56:40;27;26;
74333;PMS5003;62753;40.394;-80.022;2023-03-01T09:59:07;34;29;
74333;PMS5003;62753;40.394;-80.022;2023-03-01T10:01:31;29;28;
74333;PMS5003;62753;40.394;-80.022;2023-03-01T10:03:58;31;27;
74333;PMS5003;62753;40.394;-80.022;2023-03-01T10:06:21;33;28;
74333;PMS5003;62753;40.394;-80.022;2023-03-01T10:08:47;31;29;
74333;PMS5003;62753;40.394;-80.022;2023-03-01T10:11:17;43;29;
74333;PMS5003;62753;40.394;-80.022;2023-03-01T10:13:40;37;30;
74333;PMS5003;62753;40.394;-80.022;2023-03-01T10:16:04;30;29;
74333;PMS5003;62753;40.394;-80.022;2023-03-01T10:18:28;37;30;
74333;PMS5003;62753;40.394;-80.022;2023-03-01T10:20:54;31;27;
74333;PMS5003;62753;40.394;-80.022;2023-03-01T10:23:18;35;31;
74333;PMS5003;62753;40.394;-80.022;2023-03-01T10:25:47;29;27;
74333;PMS5003;62753;40.394;-80.022;2023-03-01T10:28:12;27;25;
74333;PMS5003;62753;40.394;-80.022;2023-03-01T10:30:35;35;27;
74333;PMS5003;62753;40.394;-80.022;2023-03-01T10:33:00;33;28;
74333;PMS5003;62753;40.394;-80.022;2023-03-01T10:35:27;37;28;
74333;PMS5003;62753;40.394;-80.022;2023-03-01T10:37:58;30;21;
74333;PMS5003;62753;40.394;-80.022;2023-03-01T10:40:17;30;26;
74333;PMS5003;62753;40.394;-80.022;2023-03-01T10:42:46;32;24;
74333;PMS5003;62753;40.394;-80.022;2023-03-01T10:45:15;34;30;
74333;PMS5003;62753;40.394;-80.022;2023-03-01T10:47:34;32;24;
74333;PMS5003;62753;40.394;-80.022;2023-03-01T10:50:00;26;22;
74333;PMS5003;62753;40.394;-80.022;2023-03-01T10:52:27;31;25;
74333;PMS5003;62753;40.394;-80.022;2023-03-01T10:54:52;27;22;
74333;PMS5003;62753;40.394;-80.022;2023-03-01T10:59:42;25;25;
74333;PMS5003;62753;40.394;-80.022;2023-03-01T11:04:33;20;19;
74333;PMS5003;62753;40.394;-80.022;2023-03-01T11:06:58;23;22;
74333;PMS5003;62753;40.394;-80.022;2023-03-01T11:09:24;33;27;
74333;PMS5003;62753;40.394;-80.022;2023-03-01T11:11:51;27;25;
74333;PMS5003;62753;40.394;-80.022;2023-03-01T11:14:15;28;24;
74333;PMS5003;62753;40.394;-80.022;2023-03-01T11:16:40;27;25;
74333;PMS5003;62753;40.394;-80.022;2023-03-01T11:19:14;27;24;
74333;PMS5003;62753;40.394;-80.022;2023-03-01T11:21:31;30;26;
74333;PMS5003;62753;40.394;-80.022;2023-03-01T11:23:56;23;21;
74333;PMS5003;62753;40.394;-80.022;2023-03-01T11:26:21;34;27;
74333;PMS5003;62753;40.394;-80.022;2023-03-01T11:28:47;25;23;
74333;PMS5003;62753;40.394;-80.022;2023-03-01T11:31:12;25;21;
74333;PMS5003;62753;40.394;-80.022;2023-03-01T11:33:39;32;25;
74333;PMS5003;62753;40.394;-80.022;2023-03-01T11:36:02;35;26;
74333;PMS5003;62753;40.394;-80.022;2023-03-01T11:38:28;27;20;
74333;PMS5003;62753;40.394;-80.022;2023-03-01T11:40:54;24;20;
74333;PMS5003;62753;40.394;-80.022;2023-03-01T11:43:19;25;24;
74333;PMS5003;62753;40.394;-80.022;2023-03-01T11:45:46;27;25;
74333;PMS5003;62753;40.394;-80.022;2023-03-01T11:48:13;27;24;
74333;PMS5003;62753;40.394;-80.022;2023-03-01T11:50:35;34;28;
74333;PMS5003;62753;40.394;-80.022;2023-03-01T11:53:01;28;27;
74333;PMS5003;62753;40.394;-80.022;2023-03-01T11:55:28;33;25;
74333;PMS5003;62753;40.394;-80.022;2023-03-01T11:57:54;31;27;
74333;PMS5003;62753;40.394;-80.022;2023-03-01T12:00:17;33;27;
74333;PMS5003;62753;40.394;-80.022;2023-03-01T12:02:44;29;22;
74333;PMS5003;62753;40.394;-80.022;2023-03-01T12:05:08;27;22;
74333;PMS5003;62753;40.394;-80.022;2023-03-01T12:07:32;28;26;
74333;PMS5003;62753;40.394;-80.022;2023-03-01T12:10:01;23;23;
74333;PMS5003;62753;40.394;-80.022;2023-03-01T12:12:26;29;24;
74333;PMS5003;62753;40.394;-80.022;2023-03-01T12:14:50;29;24;
74333;PMS5003;62753;40.394;-80.022;2023-03-01T12:17:15;34;27;
74333;PMS5003;62753;40.394;-80.022;2023-03-01T12:19:41;24;20;
74333;PMS5003;62753;40.394;-80.022;2023-03-01T12:22:10;26;21;
74333;PMS5003;62753;40.394;-80.022;2023-03-01T12:24:32;28;25;
74333;PMS5003;62753;40.394;-80.022;2023-03-01T12:26:56;24;23;
74333;PMS5003;62753;40.394;-80.022;2023-03-01T12:29:21;29;23;
74333;PMS5003;62753;40.394;-80.022;2023-03-01T12:31:53;21;18;
74333;PMS5003;62753;40.394;-80.022;2023-03-01T12:34:14;25;20;
74333;PMS5003;62753;40.394;-80.022;2023-03-01T12:36:40;26;22;
74333;PMS5003;62753;40.394;-80.022;2023-03-01T12:39:04;26;23;
74333;PMS5003;62753;40.394;-80.022;2023-03-01T12:41:30;25;22;
74333;PMS5003;62753;40.394;-80.022;2023-03-01T12:43:57;21;20;
74333;PMS5003;62753;40.394;-80.022;2023-03-01T12:46:21;22;21;
74333;PMS5003;62753;40.394;-80.022;2023-03-01T12:48:46;28;25;
74333;PMS5003;62753;40.394;-80.022;2023-03-01T12:51:10;21;19;
74333;PMS5003;62753;40.394;-80.022;2023-03-01T12:53:36;20;17;
74333;PMS5003;62753;40.394;-80.022;2023-03-01T12:56:01;22;18;
74333;PMS5003;62753;40.394;-80.022;2023-03-01T12:58:28;19;18;
74333;PMS5003;62753;40.394;-80.022;2023-03-01T13:00:55;18;16;
74333;PMS5003;62753;40.394;-80.022;2023-03-01T13:03:19;22;17;
74333;PMS5003;62753;40.394;-80.022;2023-03-01T13:05:56;19;18;
74333;PMS5003;62753;40.394;-80.022;2023-03-01T13:08:09;20;18;
74333;PMS5003;62753;40.394;-80.022;2023-03-01T13:10:34;16;15;
74333;PMS5003;62753;40.394;-80.022;2023-03-01T13:13:08;17;16;
74333;PMS5003;62753;40.394;-80.022;2023-03-01T13:15:25;16;14;
74333;PMS5003;62753;40.394;-80.022;2023-03-01T13:17:49;16;14;
74333;PMS5003;62753;40.394;-80.022;2023-03-01T13:20:15;21;15;
74333;PMS5003;62753;40.394;-80.022;2023-03-01T13:22:40;13;12;
74333;PMS5003;62753;40.394;-80.022;2023-03-01T13:25:13;11;11;
74333;PMS5003;62753;40.394;-80.022;2023-03-01T13:27:31;14;14;
74333;PMS5003;62753;40.394;-80.022;2023-03-01T13:29:57;14;13;
74333;PMS5003;62753;40.394;-80.022;2023-03-01T13:32:23;16;14;
74333;PMS5003;62753;40.394;-80.022;2023-03-01T13:34:48;17;13;
74333;PMS5003;62753;40.394;-80.022;2023-03-01T13:39:39;14;12;
74333;PMS5003;62753;40.394;-80.022;2023-03-01T13:42:03;13;12;
74333;PMS5003;62753;40.394;-80.022;2023-03-01T13:44:30;14;12;
74333;PMS5003;62753;40.394;-80.022;2023-03-01T13:46:56;14;12;
74333;PMS5003;62753;40.394;-80.022;2023-03-01T13:49:20;12;10;
74333;PMS5003;62753;40.394;-80.022;2023-03-01T13:51:46;15;13;
74333;PMS5003;62753;40.394;-80.022;2023-03-01T13:54:10;12;11;
74333;PMS5003;62753;40.394;-80.022;2023-03-01T13:56:36;13;12;
74333;PMS5003;62753;40.394;-80.022;2023-03-01T13:59:01;12;11;
74333;PMS5003;62753;40.394;-80.022;2023-03-01T14:01:28;14;10;
74333;PMS5003;62753;40.394;-80.022;2023-03-01T14:03:52;10;9;
74333;PMS5003;62753;40.394;-80.022;2023-03-01T14:06:19;13;11;
74333;PMS5003;62753;40.394;-80.022;2023-03-01T14:08:43;8;8;
74333;PMS5003;62753;40.394;-80.022;2023-03-01T14:13:37;10;10;
74333;PMS5003;62753;40.394;-80.022;2023-03-01T14:16:04;10;10;
74333;PMS5003;62753;40.394;-80.022;2023-03-01T14:18:24;7;5;
74333;PMS5003;62753;40.394;-80.022;2023-03-01T14:20:49;8;8;
74333;PMS5003;62753;40.394;-80.022;2023-03-01T14:23:15;9;9;
74333;PMS5003;62753;40.394;-80.022;2023-03-01T14:30:32;10;9;
74333;PMS5003;62753;40.394;-80.022;2023-03-01T14:32:57;10;8;
74333;PMS5003;62753;40.394;-80.022;2023-03-01T14:35:23;9;8;
74333;PMS5003;62753;40.394;-80.022;2023-03-01T14:37:47;6;5;
74333;PMS5003;62753;40.394;-80.022;2023-03-01T14:42:37;8;7;
74333;PMS5003;62753;40.394;-80.022;2023-03-01T14:45:03;7;6;
74333;PMS5003;62753;40.394;-80.022;2023-03-01T14:47:29;5;5;
74333;PMS5003;62753;40.394;-80.022;2023-03-01T14:49:56;6;6;
74333;PMS5003;62753;40.394;-80.022;2023-03-01T14:52:20;6;5;
74333;PMS5003;62753;40.394;-80.022;2023-03-01T14:54:46;6;5;
74333;PMS5003;62753;40.394;-80.022;2023-03-01T14:57:14;5;5;
74333;PMS5003;62753;40.394;-80.022;2023-03-01T14:59:35;6;6;
74333;PMS5003;62753;40.394;-80.022;2023-03-01T15:02:00;7;5;
74333;PMS5003;62753;40.394;-80.022;2023-03-01T15:04:26;4;4;
74333;PMS5003;62753;40.394;-80.022;2023-03-01T15:06:51;5;5;
74333;PMS5003;62753;40.394;-80.022;2023-03-01T15:09:16;3;3;
74333;PMS5003;62753;40.394;-80.022;2023-03-01T15:11:41;7;5;
74333;PMS5003;62753;40.394;-80.022;2023-03-01T15:16:32;6;5;
74333;PMS5003;62753;40.394;-80.022;2023-03-01T15:18:58;4;4;
74333;PMS5003;62753;40.394;-80.022;2023-03-01T15:21:23;4;4;
74333;PMS5003;62753;40.394;-80.022;2023-03-01T15:23:48;4;4;
74333;PMS5003;62753;40.394;-80.022;2023-03-01T15:28:40;5;4;
74333;PMS5003;62753;40.394;-80.022;2023-03-01T15:31:05;6;6;
74333;PMS5003;62753;40.394;-80.022;2023-03-01T15:33:30;4;4;
74333;PMS5003;62753;40.394;-80.022;2023-03-01T15:35:54;5;4;
74333;PMS5003;62753;40.394;-80.022;2023-03-01T15:38:27;3;3;
74333;PMS5003;62753;40.394;-80.022;2023-03-01T15:40:49;4;4;
74333;PMS5003;62753;40.394;-80.022;2023-03-01T15:43:36;5;4;
74333;PMS5003;62753;40.394;-80.022;2023-03-01T15:45:35;3;3;
74333;PMS5003;62753;40.394;-80.022;2023-03-01T15:48:01;5;5;
74333;PMS5003;62753;40.394;-80.022;2023-03-01T15:50:27;4;3;
74333;PMS5003;62753;40.394;-80.022;2023-03-01T15:52:51;6;6;
74333;PMS5003;62753;40.394;-80.022;2023-03-01T15:55:17;5;4;
74333;PMS5003;62753;40.394;-80.022;2023-03-01T15:57:41;4;4;